Time;durP1;ratioP1;P1;durP2;ratioP2;P2;SDS_P1;SDS_P2;PMS_P1;PMS_P2;Temp;Humidity;BMP_temperature;BMP_pressure;BME280_temperature;BME280_humidity;BME280_pressure;Samples;Min_cycle;Max_cycle;Signal;HPM_P1;HPM_P2
2024/01/09 00:01:19;;;;;;;2.20;2.10;;;;;;;;;;6290346;28;20298;-70
2024/01/09 00:04:24;;;;;;;2.10;2.10;;;;;;;;;;6281997;28;20300;-71
2024/01/09 00:07:28;;;;;;;2.27;2.17;;;;;;;;;;6280538;28;20296;-70
2024/01/09 00:10:32;;;;;;;2.33;2.23;;;;;;;;;;6295477;28;20494;-70
2024/01/09 00:13:35;;;;;;;3.60;2.20;;;;;;;;;;6317148;28;20282;-70
2024/01/09 00:16:41;;;;;;;2.07;2.00;;;;;;;;;;6287622;28;20342;-71
2024/01/09 00:19:45;;;;;;;2.33;2.33;;;;;;;;;;6286756;28;20426;-70
2024/01/09 00:22:49;;;;;;;2.50;2.40;;;;;;;;;;6286034;28;20342;-70
2024/01/09 00:25:53;;;;;;;2.13;2.13;;;;;;;;;;6292158;28;20400;-70
2024/01/09 00:28:58;;;;;;;2.13;2.13;;;;;;;;;;6301177;28;20386;-70
2024/01/09 00:32:04;;;;;;;2.27;2.10;;;;;;;;;;6286570;28;20301;-70
2024/01/09 00:35:14;;;;;;;2.13;2.03;;;;;;;;;;6286140;28;20294;-70
2024/01/09 00:38:18;;;;;;;2.00;2.00;;;;;;;;;;6285639;28;20295;-70
2024/01/09 00:41:22;;;;;;;2.27;2.20;;;;;;;;;;6291892;28;20303;-70
2024/01/09 00:44:26;;;;;;;2.07;2.07;;;;;;;;;;6301602;28;20303;-71
2024/01/09 00:47:31;;;;;;;2.10;2.00;;;;;;;;;;6307381;28;20302;-70
2024/01/09 00:50:36;;;;;;;2.07;2.07;;;;;;;;;;6285320;28;20308;-70
2024/01/09 00:53:40;;;;;;;1.83;1.83;;;;;;;;;;6285597;28;20586;-70
2024/01/09 00:56:43;;;;;;;1.83;1.83;;;;;;;;;;6267664;28;20312;-70
2024/01/09 00:59:47;;;;;;;2.20;2.20;;;;;;;;;;6320079;28;20452;-70
2024/01/09 01:02:53;;;;;;;1.80;1.80;;;;;;;;;;6316053;28;20289;-70
2024/01/09 01:05:57;;;;;;;2.40;2.30;;;;;;;;;;6310262;28;20287;-70
2024/01/09 01:09:01;;;;;;;2.23;2.10;;;;;;;;;;6309281;28;20298;-70
2024/01/09 01:12:05;;;;;;;2.00;1.90;;;;;;;;;;6310276;28;20323;-70
2024/01/09 01:15:10;;;;;;;1.93;1.93;;;;;;;;;;6305316;28;20304;-71
2024/01/09 01:18:15;;;;;;;2.30;2.20;;;;;;;;;;6288817;28;20607;-70
2024/01/09 01:21:20;;;;;;;1.97;1.83;;;;;;;;;;6301751;28;20291;-70
2024/01/09 01:24:24;;;;;;;2.00;2.00;;;;;;;;;;6284706;28;20295;-71
2024/01/09 01:27:28;;;;;;;1.90;1.90;;;;;;;;;;6277169;28;20302;-71
2024/01/09 01:30:32;;;;;;;2.20;2.10;;;;;;;;;;6296874;28;20285;-70
2024/01/09 01:33:38;;;;;;;2.43;2.17;;;;;;;;;;6300959;28;20288;-70
2024/01/09 01:36:42;;;;;;;2.20;2.10;;;;;;;;;;6305064;28;20292;-70
2024/01/09 01:39:46;;;;;;;2.00;2.00;;;;;;;;;;6307744;28;20299;-70
2024/01/09 01:42:50;;;;;;;1.73;1.73;;;;;;;;;;6283989;28;20294;-70
2024/01/09 01:45:54;;;;;;;2.00;2.00;;;;;;;;;;6283317;28;20305;-70
2024/01/09 01:49:00;;;;;;;2.10;2.10;;;;;;;;;;6303874;28;20628;-70
2024/01/09 01:52:04;;;;;;;2.10;2.00;;;;;;;;;;6307092;28;20312;-70
2024/01/09 01:55:09;;;;;;;2.73;1.90;;;;;;;;;;6283835;28;20281;-70
2024/01/09 01:58:13;;;;;;;1.70;1.70;;;;;;;;;;6292695;28;20311;-71
2024/01/09 02:01:17;;;;;;;2.00;1.90;;;;;;;;;;6284435;28;20323;-70
2024/01/09 02:04:23;;;;;;;2.20;2.10;;;;;;;;;;6284752;28;20295;-70
2024/01/09 02:07:28;;;;;;;1.57;1.57;;;;;;;;;;6282407;28;20296;-70
2024/01/09 02:10:32;;;;;;;1.80;1.70;;;;;;;;;;6294278;28;20297;-70
2024/01/09 02:13:36;;;;;;;1.83;1.83;;;;;;;;;;6317238;28;20287;-70
2024/01/09 02:16:40;;;;;;;1.87;1.87;;;;;;;;;;6329313;28;20294;-70
2024/01/09 02:19:46;;;;;;;1.80;1.80;;;;;;;;;;6324474;28;20288;-70
2024/01/09 02:22:50;;;;;;;2.00;1.90;;;;;;;;;;6315141;28;20289;-71
2024/01/09 02:25:54;;;;;;;1.80;1.77;;;;;;;;;;6323506;28;20597;-70
2024/01/09 02:29:17;;;;;;;1.60;1.60;;;;;;;;;;6328704;28;20296;-70
2024/01/09 02:32:23;;;;;;;1.93;1.80;;;;;;;;;;6293922;28;20307;-71
2024/01/09 02:35:28;;;;;;;2.10;2.00;;;;;;;;;;6341666;28;20321;-70
2024/01/09 02:38:32;;;;;;;1.60;1.60;;;;;;;;;;6331597;28;20285;-70
2024/01/09 02:41:38;;;;;;;1.47;1.47;;;;;;;;;;6332532;28;20308;-70
2024/01/09 02:44:42;;;;;;;1.60;1.60;;;;;;;;;;6297247;28;20288;-71
2024/01/09 02:47:48;;;;;;;1.50;1.50;;;;;;;;;;6302057;28;20305;-71
2024/01/09 02:50:52;;;;;;;1.77;1.77;;;;;;;;;;6333104;28;20304;-70
2024/01/09 02:53:56;;;;;;;1.97;1.93;;;;;;;;;;6332586;28;20429;-70
2024/01/09 02:57:00;;;;;;;1.70;1.70;;;;;;;;;;6333031;28;20297;-71
2024/01/09 03:00:05;;;;;;;1.70;1.70;;;;;;;;;;6326905;28;20293;-70
2024/01/09 03:03:10;;;;;;;2.10;1.80;;;;;;;;;;6313605;28;20309;-70
2024/01/09 03:06:14;;;;;;;1.60;1.60;;;;;;;;;;6333077;28;20308;-70
2024/01/09 03:09:20;;;;;;;1.77;1.67;;;;;;;;;;6303752;28;20292;-70
2024/01/09 03:12:23;;;;;;;1.50;1.50;;;;;;;;;;6321023;28;20288;-71
2024/01/09 03:15:28;;;;;;;1.63;1.63;;;;;;;;;;6343494;28;20289;-70
2024/01/09 03:18:34;;;;;;;1.60;1.60;;;;;;;;;;6323487;28;20300;-70
2024/01/09 03:21:39;;;;;;;1.90;1.80;;;;;;;;;;6303664;28;20300;-70
2024/01/09 03:24:43;;;;;;;1.80;1.80;;;;;;;;;;6330631;28;20315;-70
2024/01/09 03:27:47;;;;;;;1.73;1.60;;;;;;;;;;6319365;28;20296;-70
2024/01/09 03:30:51;;;;;;;1.70;1.70;;;;;;;;;;6321919;28;20292;-70
2024/01/09 03:33:57;;;;;;;1.80;1.80;;;;;;;;;;6332331;28;20296;-70
2024/01/09 03:37:02;;;;;;;1.70;1.60;;;;;;;;;;6323480;28;20297;-70
2024/01/09 03:40:07;;;;;;;1.50;1.50;;;;;;;;;;6305908;28;20320;-70
2024/01/09 03:43:11;;;;;;;1.50;1.50;;;;;;;;;;6313766;28;20312;-70
2024/01/09 03:46:15;;;;;;;1.63;1.63;;;;;;;;;;6336866;28;20478;-70
2024/01/09 03:49:21;;;;;;;1.80;1.30;;;;;;;;;;6336589;28;20558;-70
2024/01/09 03:52:25;;;;;;;1.57;1.57;;;;;;;;;;6335787;28;20294;-73
2024/01/09 03:55:29;;;;;;;1.50;1.50;;;;;;;;;;6328934;28;20285;-69
2024/01/09 03:58:33;;;;;;;1.60;1.60;;;;;;;;;;6324973;28;20289;-70
2024/01/09 04:01:40;;;;;;;1.50;1.50;;;;;;;;;;6334494;27;20288;-69
2024/01/09 04:04:46;;;;;;;1.20;1.20;;;;;;;;;;6322944;28;20484;-70
2024/01/09 04:07:50;;;;;;;1.53;1.53;;;;;;;;;;6334017;28;20293;-70
2024/01/09 04:10:54;;;;;;;1.67;1.67;;;;;;;;;;6341840;28;20299;-70
2024/01/09 04:13:58;;;;;;;1.60;1.60;;;;;;;;;;6336214;28;20293;-69
2024/01/09 04:17:02;;;;;;;1.53;1.53;;;;;;;;;;6329930;28;20581;-70
2024/01/09 04:20:11;;;;;;;1.30;1.30;;;;;;;;;;6286846;28;20300;-69
2024/01/09 04:23:15;;;;;;;1.50;1.50;;;;;;;;;;6332835;28;20294;-70
2024/01/09 04:26:19;;;;;;;1.43;1.43;;;;;;;;;;6324637;28;20295;-70
2024/01/09 04:29:23;;;;;;;1.50;1.50;;;;;;;;;;6326932;28;20288;-70
2024/01/09 04:32:27;;;;;;;1.80;1.40;;;;;;;;;;6327256;28;20480;-70
2024/01/09 04:35:32;;;;;;;1.47;1.47;;;;;;;;;;6324405;28;20597;-69
2024/01/09 04:38:36;;;;;;;1.40;1.40;;;;;;;;;;6305053;28;20466;-69
2024/01/09 04:41:41;;;;;;;1.40;1.40;;;;;;;;;;6318594;28;20294;-69
2024/01/09 04:44:45;;;;;;;1.50;1.50;;;;;;;;;;6334578;28;20305;-70
2024/01/09 04:47:49;;;;;;;1.33;1.33;;;;;;;;;;6327848;28;20295;-70
2024/01/09 04:50:55;;;;;;;1.40;1.40;;;;;;;;;;6305225;28;20599;-70
2024/01/09 04:54:01;;;;;;;1.27;1.20;;;;;;;;;;6332488;28;20581;-70
2024/01/09 04:57:05;;;;;;;1.40;1.40;;;;;;;;;;6340643;28;20307;-70
2024/01/09 05:00:11;;;;;;;1.40;1.40;;;;;;;;;;6324742;28;20481;-70
2024/01/09 05:03:15;;;;;;;1.20;1.20;;;;;;;;;;6301990;28;20281;-71
2024/01/09 05:06:21;;;;;;;1.23;1.23;;;;;;;;;;6315374;28;20498;-70
2024/01/09 05:09:26;;;;;;;1.30;1.30;;;;;;;;;;6313769;28;20302;-70
2024/01/09 05:12:29;;;;;;;1.60;1.60;;;;;;;;;;6327895;28;20286;-70
2024/01/09 05:15:33;;;;;;;1.47;1.33;;;;;;;;;;6333343;28;20286;-69
2024/01/09 05:18:37;;;;;;;1.00;1.00;;;;;;;;;;6299384;28;20464;-69
2024/01/09 05:21:43;;;;;;;1.30;1.30;;;;;;;;;;6283424;28;20297;-70
2024/01/09 05:24:47;;;;;;;1.47;1.40;;;;;;;;;;6309726;28;20311;-71
2024/01/09 05:27:51;;;;;;;1.00;1.00;;;;;;;;;;6309955;28;20320;-70
2024/01/09 05:30:55;;;;;;;1.00;1.00;;;;;;;;;;6309268;28;20306;-70
2024/01/09 05:33:59;;;;;;;1.20;1.20;;;;;;;;;;6309439;28;20305;-70
2024/01/09 05:37:05;;;;;;;1.20;1.20;;;;;;;;;;6309137;28;20295;-70
2024/01/09 05:40:10;;;;;;;2.33;1.27;;;;;;;;;;6297553;28;20463;-70
2024/01/09 05:43:14;;;;;;;1.10;1.10;;;;;;;;;;6300473;28;20388;-70
2024/01/09 05:46:18;;;;;;;1.20;1.20;;;;;;;;;;6297934;28;20292;-71
2024/01/09 05:49:22;;;;;;;1.20;1.20;;;;;;;;;;6309021;28;20297;-70
2024/01/09 05:52:28;;;;;;;1.20;1.20;;;;;;;;;;6330039;28;20296;-71
2024/01/09 05:55:32;;;;;;;1.30;1.30;;;;;;;;;;6338995;28;20291;-71
2024/01/09 05:58:36;;;;;;;1.37;1.37;;;;;;;;;;6340682;28;20297;-71
2024/01/09 06:01:40;;;;;;;2.10;1.03;;;;;;;;;;6333882;28;20345;-71
2024/01/09 06:04:44;;;;;;;1.23;1.23;;;;;;;;;;6333788;28;20290;-70
2024/01/09 06:07:52;;;;;;;1.23;1.20;;;;;;;;;;6320350;28;20299;-69
2024/01/09 06:10:55;;;;;;;1.23;1.23;;;;;;;;;;6334300;28;20285;-69
2024/01/09 06:13:59;;;;;;;1.20;1.20;;;;;;;;;;6324515;28;20293;-68
2024/01/09 06:17:04;;;;;;;1.10;1.10;;;;;;;;;;6333881;28;20296;-69
2024/01/09 06:20:09;;;;;;;1.30;1.30;;;;;;;;;;6333253;28;20621;-68
2024/01/09 06:23:15;;;;;;;1.13;1.13;;;;;;;;;;6333400;28;20289;-71
2024/01/09 06:26:19;;;;;;;1.00;1.00;;;;;;;;;;6302808;28;20293;-69
2024/01/09 06:29:23;;;;;;;1.13;1.13;;;;;;;;;;6314573;28;20289;-72
2024/01/09 06:32:27;;;;;;;1.10;1.10;;;;;;;;;;6339572;28;20288;-71
2024/01/09 06:35:31;;;;;;;1.20;1.20;;;;;;;;;;6333293;28;20297;-71
2024/01/09 06:38:36;;;;;;;1.20;1.20;;;;;;;;;;6333152;28;20299;-71
2024/01/09 06:41:40;;;;;;;1.30;1.30;;;;;;;;;;6332656;28;20306;-70
2024/01/09 06:44:44;;;;;;;1.40;1.40;;;;;;;;;;6320210;28;20484;-72
2024/01/09 06:47:48;;;;;;;1.30;1.30;;;;;;;;;;6333164;28;20319;-70
2024/01/09 06:50:53;;;;;;;3.20;1.20;;;;;;;;;;6330801;28;20330;-69
2024/01/09 06:53:58;;;;;;;1.00;1.00;;;;;;;;;;6313990;28;20580;-70
2024/01/09 06:57:02;;;;;;;1.10;1.10;;;;;;;;;;6332898;28;20285;-71
2024/01/09 07:00:07;;;;;;;1.20;1.20;;;;;;;;;;6316785;28;20468;-67
2024/01/09 07:03:12;;;;;;;1.00;1.00;;;;;;;;;;6307180;28;20294;-68
2024/01/09 07:06:15;;;;;;;1.20;1.20;;;;;;;;;;6306999;28;20475;-71
2024/01/09 07:09:22;;;;;;;1.10;1.10;;;;;;;;;;6303910;28;20299;-70
2024/01/09 07:12:27;;;;;;;1.20;1.20;;;;;;;;;;6332094;28;20558;-70
2024/01/09 07:15:31;;;;;;;1.40;1.30;;;;;;;;;;6331242;28;20289;-69
2024/01/09 07:18:35;;;;;;;1.03;1.03;;;;;;;;;;6307410;28;20282;-70
2024/01/09 07:21:40;;;;;;;1.10;1.10;;;;;;;;;;6303548;28;20297;-70
2024/01/09 07:24:45;;;;;;;1.00;1.00;;;;;;;;;;6315261;28;20460;-69
2024/01/09 07:27:49;;;;;;;1.20;1.20;;;;;;;;;;6306707;28;20286;-68
2024/01/09 07:30:54;;;;;;;1.27;1.27;;;;;;;;;;6307030;28;20295;-70
2024/01/09 07:33:59;;;;;;;1.40;1.30;;;;;;;;;;6306403;28;20479;-70
2024/01/09 07:37:03;;;;;;;1.20;1.20;;;;;;;;;;6307437;28;20293;-70
2024/01/09 07:40:09;;;;;;;1.10;1.10;;;;;;;;;;6307038;28;20294;-70
2024/01/09 07:43:13;;;;;;;1.10;1.10;;;;;;;;;;6306949;28;20580;-70
2024/01/09 07:46:18;;;;;;;1.20;1.20;;;;;;;;;;6306306;28;20298;-70
2024/01/09 07:49:22;;;;;;;1.10;1.10;;;;;;;;;;6306355;28;20296;-70
2024/01/09 07:52:26;;;;;;;1.40;1.40;;;;;;;;;;6306629;28;20299;-70
2024/01/09 07:55:31;;;;;;;1.10;1.10;;;;;;;;;;6305969;28;20293;-69
2024/01/09 07:58:35;;;;;;;1.20;1.20;;;;;;;;;;6307622;28;20298;-71
2024/01/09 08:01:39;;;;;;;1.10;1.10;;;;;;;;;;6306419;28;20297;-72
2024/01/09 08:04:43;;;;;;;1.30;1.30;;;;;;;;;;6306528;28;20292;-70
2024/01/09 08:07:47;;;;;;;1.33;1.33;;;;;;;;;;6307463;28;20290;-70
2024/01/09 08:10:52;;;;;;;1.17;1.17;;;;;;;;;;6306468;28;20286;-71
2024/01/09 08:13:56;;;;;;;1.10;1.10;;;;;;;;;;6279217;28;20309;-70
2024/01/09 08:17:00;;;;;;;1.07;1.07;;;;;;;;;;6288916;28;20290;-70
2024/01/09 08:20:05;;;;;;;1.10;1.10;;;;;;;;;;6306359;28;20298;-70
2024/01/09 08:23:10;;;;;;;1.10;1.10;;;;;;;;;;6306912;28;20295;-70
2024/01/09 08:26:15;;;;;;;1.00;1.00;;;;;;;;;;6306016;28;20296;-70
2024/01/09 08:29:19;;;;;;;1.17;1.17;;;;;;;;;;6308356;28;20292;-70
2024/01/09 08:32:23;;;;;;;1.17;1.17;;;;;;;;;;6311269;28;20293;-70
2024/01/09 08:35:27;;;;;;;1.33;1.20;;;;;;;;;;6310449;28;20296;-70
2024/01/09 08:38:31;;;;;;;1.20;1.20;;;;;;;;;;6310952;28;20294;-70
2024/01/09 08:41:37;;;;;;;1.37;1.37;;;;;;;;;;6292225;28;20294;-70
2024/01/09 08:44:40;;;;;;;1.30;1.30;;;;;;;;;;6290306;28;20294;-70
2024/01/09 08:47:44;;;;;;;1.57;1.47;;;;;;;;;;6310792;28;20302;-69
2024/01/09 08:50:49;;;;;;;1.10;1.10;;;;;;;;;;6316793;28;20324;-70
2024/01/09 08:53:54;;;;;;;1.70;1.20;;;;;;;;;;6335730;28;20442;-71
2024/01/09 08:57:00;;;;;;;1.20;1.20;;;;;;;;;;6336326;28;20379;-70
2024/01/09 09:00:04;;;;;;;1.10;1.10;;;;;;;;;;6319978;28;20293;-70
2024/01/09 09:03:09;;;;;;;1.10;1.10;;;;;;;;;;6310574;28;20294;-70
2024/01/09 09:06:13;;;;;;;1.10;1.10;;;;;;;;;;6309990;28;20288;-70
2024/01/09 09:09:17;;;;;;;1.30;1.30;;;;;;;;;;6310168;28;20282;-70
2024/01/09 09:12:22;;;;;;;1.20;1.20;;;;;;;;;;6327049;28;20614;-70
2024/01/09 09:15:26;;;;;;;1.20;1.20;;;;;;;;;;6327992;28;20289;-70
2024/01/09 09:18:30;;;;;;;1.37;1.37;;;;;;;;;;6310480;28;20320;-70
2024/01/09 09:21:34;;;;;;;1.60;1.20;;;;;;;;;;6309560;28;20386;-70
2024/01/09 09:24:38;;;;;;;1.17;1.17;;;;;;;;;;6309945;28;20296;-71
2024/01/09 09:27:45;;;;;;;1.20;1.20;;;;;;;;;;6309908;28;20290;-71
2024/01/09 09:30:49;;;;;;;1.10;1.10;;;;;;;;;;6309007;28;20305;-70
2024/01/09 09:33:53;;;;;;;1.30;1.30;;;;;;;;;;6309808;28;20302;-70
2024/01/09 09:36:58;;;;;;;1.90;1.20;;;;;;;;;;6301449;28;20291;-70
2024/01/09 09:40:02;;;;;;;1.30;1.30;;;;;;;;;;6308643;28;20297;-71
2024/01/09 09:43:14;;;;;;;1.43;1.30;;;;;;;;;;6309797;28;20613;-71
2024/01/09 09:46:20;;;;;;;1.30;1.30;;;;;;;;;;6309614;28;20290;-70
2024/01/09 09:49:24;;;;;;;1.20;1.20;;;;;;;;;;6308837;28;20563;-70
2024/01/09 09:52:29;;;;;;;1.57;1.57;;;;;;;;;;6329519;28;20402;-71
2024/01/09 09:55:34;;;;;;;1.43;1.43;;;;;;;;;;6333701;28;20292;-70
2024/01/09 09:58:39;;;;;;;1.37;1.37;;;;;;;;;;6331135;28;20327;-72
2024/01/09 10:01:45;;;;;;;1.27;1.27;;;;;;;;;;6308513;28;20285;-70
2024/01/09 10:04:51;;;;;;;1.27;1.27;;;;;;;;;;6307685;28;20317;-70
2024/01/09 10:07:56;;;;;;;1.07;1.07;;;;;;;;;;6309032;28;20309;-70
2024/01/09 10:10:59;;;;;;;1.30;1.30;;;;;;;;;;6313396;28;20298;-70
2024/01/09 10:14:05;;;;;;;1.60;1.60;;;;;;;;;;6333602;28;20295;-70
2024/01/09 10:17:13;;;;;;;1.50;1.50;;;;;;;;;;6314069;28;20297;-70
2024/01/09 10:20:18;;;;;;;1.10;1.10;;;;;;;;;;6308249;28;20297;-70
2024/01/09 10:23:25;;;;;;;1.10;1.10;;;;;;;;;;6308846;28;20297;-69
2024/01/09 10:26:29;;;;;;;1.30;1.30;;;;;;;;;;6308250;28;20296;-70
2024/01/09 10:29:34;;;;;;;1.50;1.50;;;;;;;;;;6308092;28;20289;-68
2024/01/09 10:32:40;;;;;;;1.30;1.30;;;;;;;;;;6290387;28;20415;-69
2024/01/09 10:35:48;;;;;;;2.27;1.27;;;;;;;;;;6307650;28;20282;-69
2024/01/09 10:38:52;;;;;;;1.40;1.40;;;;;;;;;;6308467;28;20289;-69
2024/01/09 10:41:56;;;;;;;1.47;1.47;;;;;;;;;;6308799;28;20291;-70
2024/01/09 10:45:02;;;;;;;1.30;1.30;;;;;;;;;;6307832;28;20305;-70
2024/01/09 10:48:07;;;;;;;1.40;1.40;;;;;;;;;;6308206;28;20295;-69
2024/01/09 10:51:12;;;;;;;1.27;1.27;;;;;;;;;;6316986;28;20305;-68
2024/01/09 10:54:17;;;;;;;1.23;1.23;;;;;;;;;;6333129;28;20285;-69
2024/01/09 10:57:21;;;;;;;1.33;1.33;;;;;;;;;;6320043;28;20296;-69
2024/01/09 11:00:27;;;;;;;1.40;1.40;;;;;;;;;;6333204;28;20286;-70
2024/01/09 11:03:31;;;;;;;1.30;1.30;;;;;;;;;;6349506;28;20489;-70
2024/01/09 11:06:36;;;;;;;1.30;1.30;;;;;;;;;;6330955;28;20305;-70
2024/01/09 11:09:43;;;;;;;1.30;1.20;;;;;;;;;;6332785;28;20292;-70
2024/01/09 11:12:50;;;;;;;1.20;1.20;;;;;;;;;;6333093;28;20300;-69
2024/01/09 11:15:56;;;;;;;1.80;1.70;;;;;;;;;;6332548;28;20285;-70
2024/01/09 11:19:01;;;;;;;1.27;1.27;;;;;;;;;;6332571;28;20297;-71
2024/01/09 11:22:15;;;;;;;1.33;1.33;;;;;;;;;;6333233;28;20293;-70
2024/01/09 11:25:23;;;;;;;1.17;1.17;;;;;;;;;;6332559;28;20294;-70
2024/01/09 11:28:37;;;;;;;1.70;1.40;;;;;;;;;;6332252;28;20391;-71
2024/01/09 11:31:43;;;;;;;1.50;1.50;;;;;;;;;;6331606;28;20302;-72
2024/01/09 11:34:47;;;;;;;1.40;1.40;;;;;;;;;;6331773;28;20288;-70
2024/01/09 11:37:52;;;;;;;1.53;1.40;;;;;;;;;;6332570;28;20283;-70
2024/01/09 11:40:56;;;;;;;1.50;1.50;;;;;;;;;;6331839;28;20293;-71
2024/01/09 11:44:04;;;;;;;1.37;1.37;;;;;;;;;;6335662;28;20286;-70
2024/01/09 11:47:10;;;;;;;1.37;1.37;;;;;;;;;;6333193;28;20300;-70
2024/01/09 11:50:14;;;;;;;1.23;1.23;;;;;;;;;;6313531;28;20296;-70
2024/01/09 11:53:18;;;;;;;1.40;1.40;;;;;;;;;;6332909;28;20305;-71
2024/01/09 11:56:22;;;;;;;1.30;1.20;;;;;;;;;;6310385;28;20291;-71
2024/01/09 11:59:26;;;;;;;1.70;1.70;;;;;;;;;;6301485;28;20321;-71
2024/01/09 12:02:33;;;;;;;1.40;1.40;;;;;;;;;;6333512;28;20479;-69
2024/01/09 12:05:37;;;;;;;1.37;1.37;;;;;;;;;;6336582;28;20293;-70
2024/01/09 12:08:41;;;;;;;1.60;1.50;;;;;;;;;;6333059;28;20530;-70
2024/01/09 12:11:45;;;;;;;1.40;1.40;;;;;;;;;;6325198;28;20290;-70
2024/01/09 12:14:52;;;;;;;1.37;1.37;;;;;;;;;;6326658;28;20477;-70
2024/01/09 12:18:02;;;;;;;1.53;1.50;;;;;;;;;;6286840;28;20290;-70
2024/01/09 12:21:06;;;;;;;1.43;1.43;;;;;;;;;;6286386;28;20298;-70
2024/01/09 12:24:11;;;;;;;1.70;1.60;;;;;;;;;;6258975;28;20306;-70
2024/01/09 12:27:27;;;;;;;1.50;1.50;;;;;;;;;;6285425;28;20290;-70
2024/01/09 12:30:32;;;;;;;1.60;1.50;;;;;;;;;;6285706;28;20298;-70
2024/01/09 12:33:38;;;;;;;1.40;1.30;;;;;;;;;;6285754;28;20303;-71
2024/01/09 12:36:43;;;;;;;1.30;1.30;;;;;;;;;;6258008;28;20294;-69
2024/01/09 12:39:47;;;;;;;1.50;1.40;;;;;;;;;;6285778;28;20290;-70
2024/01/09 12:43:09;;;;;;;1.43;1.33;;;;;;;;;;6286052;28;20299;-70
2024/01/09 12:46:13;;;;;;;1.50;1.40;;;;;;;;;;6290710;28;20310;-70
2024/01/09 12:49:19;;;;;;;1.30;1.30;;;;;;;;;;6285677;28;20290;-72
2024/01/09 12:52:23;;;;;;;1.20;1.20;;;;;;;;;;6285865;28;20297;-69
2024/01/09 12:55:28;;;;;;;1.30;1.30;;;;;;;;;;6285008;28;20306;-71
2024/01/09 12:58:33;;;;;;;1.23;1.23;;;;;;;;;;6287995;28;20294;-71
2024/01/09 13:01:37;;;;;;;1.30;1.30;;;;;;;;;;6309884;28;20303;-70
2024/01/09 13:04:46;;;;;;;1.60;1.30;;;;;;;;;;6309834;28;20303;-70
2024/01/09 13:07:50;;;;;;;1.57;1.47;;;;;;;;;;6310409;28;20296;-69
2024/01/09 13:10:54;;;;;;;1.40;1.30;;;;;;;;;;6310132;28;20285;-70
2024/01/09 13:13:59;;;;;;;1.30;1.30;;;;;;;;;;6308894;28;20303;-70
2024/01/09 13:17:04;;;;;;;1.60;1.30;;;;;;;;;;6309269;28;20297;-69
2024/01/09 13:20:11;;;;;;;1.20;1.20;;;;;;;;;;6281350;28;20297;-69
2024/01/09 13:23:14;;;;;;;1.27;1.27;;;;;;;;;;6271535;28;20304;-69
2024/01/09 13:26:22;;;;;;;1.30;1.30;;;;;;;;;;6308664;28;20299;-70
2024/01/09 13:29:27;;;;;;;1.30;1.30;;;;;;;;;;6308769;28;20613;-70
2024/01/09 13:32:50;;;;;;;1.53;1.53;;;;;;;;;;6309125;28;20305;-69
2024/01/09 13:35:56;;;;;;;1.30;1.30;;;;;;;;;;6302581;28;20288;-70
2024/01/09 13:39:00;;;;;;;1.50;1.50;;;;;;;;;;6309067;28;20294;-70
2024/01/09 13:42:04;;;;;;;1.40;1.40;;;;;;;;;;6309997;28;20300;-70
2024/01/09 13:45:08;;;;;;;1.40;1.40;;;;;;;;;;6299789;28;20299;-71
2024/01/09 13:48:13;;;;;;;1.20;1.20;;;;;;;;;;6309448;28;20297;-71
2024/01/09 13:51:21;;;;;;;1.30;1.30;;;;;;;;;;6291974;28;20296;-70
2024/01/09 13:54:28;;;;;;;1.50;1.50;;;;;;;;;;6333816;28;20294;-71
2024/01/09 13:57:32;;;;;;;1.30;1.30;;;;;;;;;;6315821;28;20289;-70
2024/01/09 14:00:37;;;;;;;1.30;1.30;;;;;;;;;;6330846;28;20436;-71
2024/01/09 14:03:41;;;;;;;1.30;1.30;;;;;;;;;;6341941;28;20292;-71
2024/01/09 14:06:47;;;;;;;1.07;1.07;;;;;;;;;;6333334;28;20288;-70
2024/01/09 14:09:50;;;;;;;1.80;1.70;;;;;;;;;;6333656;28;20294;-70
2024/01/09 14:12:55;;;;;;;1.40;1.40;;;;;;;;;;6327846;28;20291;-70
2024/01/09 14:15:59;;;;;;;1.23;1.20;;;;;;;;;;6341152;28;20300;-71
2024/01/09 14:19:05;;;;;;;1.40;1.40;;;;;;;;;;6338845;28;20282;-70
2024/01/09 14:22:10;;;;;;;1.30;1.30;;;;;;;;;;6333591;28;20294;-70
2024/01/09 14:25:14;;;;;;;1.20;1.20;;;;;;;;;;6332810;28;20302;-69
2024/01/09 14:28:18;;;;;;;1.50;1.50;;;;;;;;;;6305508;28;20589;-69
2024/01/09 14:31:23;;;;;;;1.40;1.40;;;;;;;;;;6332435;28;20485;-70
2024/01/09 14:34:27;;;;;;;1.30;1.30;;;;;;;;;;6332034;28;20291;-70
2024/01/09 14:37:32;;;;;;;2.33;1.40;;;;;;;;;;6333754;28;20289;-69
2024/01/09 14:40:37;;;;;;;1.77;1.70;;;;;;;;;;6332570;28;20299;-70
2024/01/09 14:43:40;;;;;;;2.47;1.63;;;;;;;;;;6331184;28;20307;-70
2024/01/09 14:46:48;;;;;;;1.80;1.80;;;;;;;;;;6339832;28;20305;-70
2024/01/09 14:49:52;;;;;;;1.80;1.80;;;;;;;;;;6330057;28;20300;-70
2024/01/09 14:52:57;;;;;;;1.60;1.60;;;;;;;;;;6338209;28;20301;-70
2024/01/09 14:56:03;;;;;;;1.67;1.67;;;;;;;;;;6332907;28;20284;-71
2024/01/09 14:59:07;;;;;;;1.57;1.53;;;;;;;;;;6325261;28;20290;-70
2024/01/09 15:02:11;;;;;;;1.57;1.53;;;;;;;;;;6308246;28;20290;-70
2024/01/09 15:05:16;;;;;;;2.17;1.50;;;;;;;;;;6307457;28;20313;-70
2024/01/09 15:08:22;;;;;;;1.70;1.70;;;;;;;;;;6307683;28;20361;-70
2024/01/09 15:11:26;;;;;;;1.33;1.33;;;;;;;;;;6307283;28;20488;-70
2024/01/09 15:14:30;;;;;;;1.30;1.30;;;;;;;;;;6299019;28;20299;-70
2024/01/09 15:17:34;;;;;;;1.60;1.60;;;;;;;;;;6330754;28;20293;-70
2024/01/09 15:20:43;;;;;;;1.63;1.43;;;;;;;;;;6332296;28;20309;-70
2024/01/09 15:23:49;;;;;;;1.60;1.60;;;;;;;;;;6332216;28;20292;-71
2024/01/09 15:26:53;;;;;;;1.60;1.53;;;;;;;;;;6332687;28;20296;-70
2024/01/09 15:29:57;;;;;;;1.57;1.57;;;;;;;;;;6336667;28;20289;-70
2024/01/09 15:33:07;;;;;;;2.00;1.50;;;;;;;;;;6333017;28;20293;-70
2024/01/09 15:36:11;;;;;;;1.60;1.50;;;;;;;;;;6332061;28;20300;-70
2024/01/09 15:39:17;;;;;;;1.73;1.73;;;;;;;;;;6341418;28;20427;-70
2024/01/09 15:42:21;;;;;;;1.97;1.87;;;;;;;;;;6337721;28;20336;-70
2024/01/09 15:45:26;;;;;;;1.30;1.30;;;;;;;;;;6336791;28;20303;-70
2024/01/09 15:48:29;;;;;;;2.20;1.60;;;;;;;;;;6337373;28;20288;-70
2024/01/09 15:51:34;;;;;;;1.50;1.50;;;;;;;;;;6336892;28;20300;-70
2024/01/09 15:54:41;;;;;;;1.57;1.50;;;;;;;;;;6317945;28;20601;-70
2024/01/09 15:57:46;;;;;;;1.73;1.70;;;;;;;;;;6309564;28;20288;-70
2024/01/09 16:00:50;;;;;;;1.40;1.40;;;;;;;;;;6314918;28;20443;-70
2024/01/09 16:03:55;;;;;;;1.60;1.60;;;;;;;;;;6311545;28;20583;-70
2024/01/09 16:07:00;;;;;;;1.30;1.30;;;;;;;;;;6312906;28;20302;-70
2024/01/09 16:10:06;;;;;;;1.50;1.50;;;;;;;;;;6317006;28;20312;-70
2024/01/09 16:13:11;;;;;;;1.40;1.40;;;;;;;;;;6336486;28;20288;-71
2024/01/09 16:16:17;;;;;;;1.33;1.33;;;;;;;;;;6324554;28;20301;-71
2024/01/09 16:19:21;;;;;;;1.40;1.40;;;;;;;;;;6311125;28;20484;-71
2024/01/09 16:22:25;;;;;;;1.53;1.53;;;;;;;;;;6311303;28;20302;-71
2024/01/09 16:25:30;;;;;;;1.40;1.40;;;;;;;;;;6309919;28;20301;-71
2024/01/09 16:28:36;;;;;;;1.47;1.47;;;;;;;;;;6300552;28;20298;-71
2024/01/09 16:31:41;;;;;;;1.40;1.30;;;;;;;;;;6302098;28;20297;-70
2024/01/09 16:34:45;;;;;;;1.30;1.30;;;;;;;;;;6282458;28;20301;-70
2024/01/09 16:37:49;;;;;;;3.27;1.27;;;;;;;;;;6300426;28;20282;-70
2024/01/09 16:40:54;;;;;;;1.33;1.33;;;;;;;;;;6291337;28;20285;-70
2024/01/09 16:43:59;;;;;;;1.33;1.33;;;;;;;;;;6301863;28;20606;-71
2024/01/09 16:47:03;;;;;;;1.57;1.57;;;;;;;;;;6311469;28;20393;-71
2024/01/09 16:50:07;;;;;;;1.60;1.60;;;;;;;;;;6309721;28;20298;-71
2024/01/09 16:53:11;;;;;;;1.43;1.43;;;;;;;;;;6332797;28;20305;-70
2024/01/09 16:56:20;;;;;;;1.53;1.50;;;;;;;;;;6335852;28;20305;-70
2024/01/09 16:59:24;;;;;;;1.57;1.57;;;;;;;;;;6308157;28;20294;-69
2024/01/09 17:02:28;;;;;;;1.30;1.30;;;;;;;;;;6327492;28;20297;-68
2024/01/09 17:05:32;;;;;;;1.57;1.57;;;;;;;;;;6307246;28;20302;-71
2024/01/09 17:08:38;;;;;;;1.30;1.30;;;;;;;;;;6336053;28;20297;-71
2024/01/09 17:11:43;;;;;;;2.10;2.00;;;;;;;;;;6336132;28;20305;-70
2024/01/09 17:14:47;;;;;;;1.60;1.60;;;;;;;;;;6326896;28;20297;-70
2024/01/09 17:17:51;;;;;;;1.77;1.60;;;;;;;;;;6311044;28;20298;-70
2024/01/09 17:20:55;;;;;;;1.37;1.37;;;;;;;;;;6330903;28;20288;-70
2024/01/09 17:24:00;;;;;;;3.13;1.77;;;;;;;;;;6303160;28;20306;-71
2024/01/09 17:27:05;;;;;;;1.60;1.60;;;;;;;;;;6310777;28;20297;-71
2024/01/09 17:30:10;;;;;;;1.17;1.17;;;;;;;;;;6309964;28;20590;-71
2024/01/09 17:33:14;;;;;;;1.23;1.23;;;;;;;;;;6310833;28;20308;-71
2024/01/09 17:36:18;;;;;;;1.50;1.50;;;;;;;;;;6309874;28;20417;-70
2024/01/09 17:39:22;;;;;;;1.43;1.43;;;;;;;;;;6309638;28;20290;-70
2024/01/09 17:42:31;;;;;;;1.50;1.50;;;;;;;;;;6310024;28;20301;-72
2024/01/09 17:45:38;;;;;;;1.70;1.70;;;;;;;;;;6307210;28;20317;-71
2024/01/09 17:48:42;;;;;;;1.50;1.50;;;;;;;;;;6309445;28;20290;-71
2024/01/09 17:51:46;;;;;;;1.50;1.50;;;;;;;;;;6309626;28;20290;-71
2024/01/09 17:54:50;;;;;;;1.50;1.50;;;;;;;;;;6307115;28;20332;-70
2024/01/09 17:57:56;;;;;;;1.30;1.30;;;;;;;;;;6299497;28;20282;-70
2024/01/09 18:01:00;;;;;;;1.73;1.60;;;;;;;;;;6330575;28;20305;-70
2024/01/09 18:04:06;;;;;;;1.40;1.40;;;;;;;;;;6304773;28;20289;-71
2024/01/09 18:07:10;;;;;;;1.47;1.37;;;;;;;;;;6333856;28;20305;-70
2024/01/09 18:10:16;;;;;;;1.90;1.80;;;;;;;;;;6332657;28;20296;-70
2024/01/09 18:13:22;;;;;;;1.67;1.67;;;;;;;;;;6333821;28;20361;-70
2024/01/09 18:16:26;;;;;;;1.70;1.70;;;;;;;;;;6332586;28;20313;-71
2024/01/09 18:19:31;;;;;;;1.50;1.50;;;;;;;;;;6333311;28;20593;-71
2024/01/09 18:22:35;;;;;;;1.60;1.50;;;;;;;;;;6331846;28;20301;-71
2024/01/09 18:25:39;;;;;;;1.50;1.40;;;;;;;;;;6340832;28;20295;-73
2024/01/09 18:28:47;;;;;;;1.50;1.50;;;;;;;;;;6330602;28;20292;-72